sensor_id;sensor_type;location;lat;lon;timestamp;pressure;altitude;pressure_sealevel;temperature;humidity
76321;BME280;65132;52.088;5.402;2023-08-31T00:00:46;100805.25;;;11.93;100.00
76321;BME280;65132;52.088;5.402;2023-08-31T00:03:13;100802.00;;;11.90;100.00
76321;BME280;65132;52.088;5.402;2023-08-31T00:05:41;100798.06;;;11.84;100.00
76321;BME280;65132;52.088;5.402;2023-08-31T00:08:08;100803.88;;;11.89;100.00
76321;BME280;65132;52.088;5.402;2023-08-31T00:10:37;100802.41;;;11.95;100.00
76321;BME280;65132;52.088;5.402;2023-08-31T00:13:10;100808.09;;;11.92;100.00
76321;BME280;65132;52.088;5.402;2023-08-31T00:15:39;100812.53;;;11.93;100.00
76321;BME280;65132;52.088;5.402;2023-08-31T00:18:09;100802.25;;;11.96;100.00
76321;BME280;65132;52.088;5.402;2023-08-31T00:20:39;100804.56;;;11.91;100.00
76321;BME280;65132;52.088;5.402;2023-08-31T00:23:05;100798.34;;;11.99;100.00
76321;BME280;65132;52.088;5.402;2023-08-31T00:25:35;100795.72;;;11.89;100.00
76321;BME280;65132;52.088;5.402;2023-08-31T00:28:02;100801.31;;;11.88;100.00
76321;BME280;65132;52.088;5.402;2023-08-31T00:30:28;100789.75;;;11.86;100.00
76321;BME280;65132;52.088;5.402;2023-08-31T00:32:58;100786.34;;;11.84;100.00
76321;BME280;65132;52.088;5.402;2023-08-31T00:35:30;100795.88;;;11.88;100.00
76321;BME280;65132;52.088;5.402;2023-08-31T00:37:59;100798.88;;;11.85;100.00
76321;BME280;65132;52.088;5.402;2023-08-31T00:40:29;100792.47;;;11.86;100.00
76321;BME280;65132;52.088;5.402;2023-08-31T00:42:57;100801.69;;;11.93;100.00
76321;BME280;65132;52.088;5.402;2023-08-31T00:45:41;100800.28;;;11.89;100.00
76321;BME280;65132;52.088;5.402;2023-08-31T00:48:14;100801.00;;;11.91;100.00
76321;BME280;65132;52.088;5.402;2023-08-31T00:50:41;100802.41;;;11.95;100.00
76321;BME280;65132;52.088;5.402;2023-08-31T00:53:10;100795.31;;;12.02;100.00
76321;BME280;65132;52.088;5.402;2023-08-31T00:55:37;100800.47;;;12.05;100.00
76321;BME280;65132;52.088;5.402;2023-08-31T01:00:53;100794.34;;;12.03;100.00
76321;BME280;65132;52.088;5.402;2023-08-31T01:03:50;100784.78;;;11.99;100.00
76321;BME280;65132;52.088;5.402;2023-08-31T01:09:18;100795.19;;;12.03;100.00
76321;BME280;65132;52.088;5.402;2023-08-31T01:11:57;100802.00;;;12.07;100.00
76321;BME280;65132;52.088;5.402;2023-08-31T01:14:50;100802.53;;;12.11;100.00
76321;BME280;65132;52.088;5.402;2023-08-31T01:17:23;100796.97;;;12.13;100.00
76321;BME280;65132;52.088;5.402;2023-08-31T01:19:54;100797.50;;;12.16;100.00
76321;BME280;65132;52.088;5.402;2023-08-31T01:22:36;100798.53;;;12.15;100.00
76321;BME280;65132;52.088;5.402;2023-08-31T01:25:04;100797.81;;;12.13;100.00
76321;BME280;65132;52.088;5.402;2023-08-31T01:27:33;100798.69;;;12.14;100.00
76321;BME280;65132;52.088;5.402;2023-08-31T01:30:05;100798.47;;;12.07;100.00
76321;BME280;65132;52.088;5.402;2023-08-31T01:32:33;100787.50;;;11.99;100.00
76321;BME280;65132;52.088;5.402;2023-08-31T01:35:01;100797.06;;;12.03;100.00
76321;BME280;65132;52.088;5.402;2023-08-31T01:37:49;100799.53;;;11.96;100.00
76321;BME280;65132;52.088;5.402;2023-08-31T01:42:53;100799.75;;;12.03;100.00
76321;BME280;65132;52.088;5.402;2023-08-31T01:45:30;100808.59;;;12.05;100.00
76321;BME280;65132;52.088;5.402;2023-08-31T01:48:03;100806.34;;;12.00;100.00
76321;BME280;65132;52.088;5.402;2023-08-31T01:50:30;100804.81;;;11.98;100.00
76321;BME280;65132;52.088;5.402;2023-08-31T01:52:59;100800.38;;;11.97;100.00
76321;BME280;65132;52.088;5.402;2023-08-31T01:55:25;100791.00;;;11.91;100.00
76321;BME280;65132;52.088;5.402;2023-08-31T01:57:55;100804.19;;;11.86;100.00
76321;BME280;65132;52.088;5.402;2023-08-31T02:00:25;100800.91;;;11.83;100.00
76321;BME280;65132;52.088;5.402;2023-08-31T02:02:52;100804.84;;;11.88;100.00
76321;BME280;65132;52.088;5.402;2023-08-31T02:05:22;100798.22;;;11.83;100.00
76321;BME280;65132;52.088;5.402;2023-08-31T02:07:51;100804.31;;;11.85;100.00
76321;BME280;65132;52.088;5.402;2023-08-31T02:10:18;100811.84;;;11.91;100.00
76321;BME280;65132;52.088;5.402;2023-08-31T02:12:47;100818.53;;;11.96;100.00
76321;BME280;65132;52.088;5.402;2023-08-31T02:15:18;100823.09;;;11.96;100.00
76321;BME280;65132;52.088;5.402;2023-08-31T02:17:49;100823.78;;;11.98;100.00
76321;BME280;65132;52.088;5.402;2023-08-31T02:20:18;100823.31;;;12.02;100.00
76321;BME280;65132;52.088;5.402;2023-08-31T02:22:45;100822.88;;;12.07;100.00
76321;BME280;65132;52.088;5.402;2023-08-31T02:25:15;100818.97;;;12.10;100.00
76321;BME280;65132;52.088;5.402;2023-08-31T02:27:50;100827.28;;;12.08;100.00
76321;BME280;65132;52.088;5.402;2023-08-31T02:30:26;100828.13;;;12.09;100.00
76321;BME280;65132;52.088;5.402;2023-08-31T02:32:55;100820.84;;;12.09;100.00
76321;BME280;65132;52.088;5.402;2023-08-31T02:35:22;100827.97;;;12.10;100.00
76321;BME280;65132;52.088;5.402;2023-08-31T02:37:49;100828.81;;;12.11;100.00
76321;BME280;65132;52.088;5.402;2023-08-31T02:40:15;100824.41;;;12.10;100.00
76321;BME280;65132;52.088;5.402;2023-08-31T02:42:42;100823.84;;;12.06;100.00
76321;BME280;65132;52.088;5.402;2023-08-31T02:45:11;100822.72;;;12.09;100.00
76321;BME280;65132;52.088;5.402;2023-08-31T02:47:44;100821.84;;;12.08;100.00
76321;BME280;65132;52.088;5.402;2023-08-31T02:50:11;100821.53;;;12.11;100.00
76321;BME280;65132;52.088;5.402;2023-08-31T02:52:37;100818.13;;;12.09;100.00
76321;BME280;65132;52.088;5.402;2023-08-31T02:55:04;100817.84;;;12.12;100.00
76321;BME280;65132;52.088;5.402;2023-08-31T02:57:31;100812.69;;;12.09;100.00
76321;BME280;65132;52.088;5.402;2023-08-31T02:59:59;100811.72;;;12.10;100.00
76321;BME280;65132;52.088;5.402;2023-08-31T03:02:35;100802.69;;;12.10;100.00
76321;BME280;65132;52.088;5.402;2023-08-31T03:05:02;100806.72;;;12.05;100.00
76321;BME280;65132;52.088;5.402;2023-08-31T03:07:29;100808.75;;;12.03;100.00
76321;BME280;65132;52.088;5.402;2023-08-31T03:09:58;100806.72;;;12.05;100.00
76321;BME280;65132;52.088;5.402;2023-08-31T03:12:26;100809.44;;;12.05;100.00
76321;BME280;65132;52.088;5.402;2023-08-31T03:14:53;100803.47;;;12.02;100.00
76321;BME280;65132;52.088;5.402;2023-08-31T03:17:20;100793.09;;;11.97;100.00
76321;BME280;65132;52.088;5.402;2023-08-31T03:19:49;100803.34;;;12.03;100.00
76321;BME280;65132;52.088;5.402;2023-08-31T03:22:15;100797.91;;;12.03;100.00
76321;BME280;65132;52.088;5.402;2023-08-31T03:24:45;100803.56;;;12.10;100.00
76321;BME280;65132;52.088;5.402;2023-08-31T03:27:23;100810.53;;;12.13;100.00
76321;BME280;65132;52.088;5.402;2023-08-31T03:29:49;100816.19;;;12.19;100.00
76321;BME280;65132;52.088;5.402;2023-08-31T03:32:16;100814.88;;;12.23;100.00
76321;BME280;65132;52.088;5.402;2023-08-31T03:34:45;100813.25;;;12.30;100.00
76321;BME280;65132;52.088;5.402;2023-08-31T03:37:12;100816.66;;;12.32;100.00
76321;BME280;65132;52.088;5.402;2023-08-31T03:39:38;100809.06;;;12.36;100.00
76321;BME280;65132;52.088;5.402;2023-08-31T03:42:05;100811.94;;;12.34;100.00
76321;BME280;65132;52.088;5.402;2023-08-31T03:44:34;100811.63;;;12.37;100.00
76321;BME280;65132;52.088;5.402;2023-08-31T03:47:05;100811.63;;;12.37;100.00
76321;BME280;65132;52.088;5.402;2023-08-31T03:49:36;100814.31;;;12.37;100.00
76321;BME280;65132;52.088;5.402;2023-08-31T03:52:03;100808.75;;;12.39;100.00
76321;BME280;65132;52.088;5.402;2023-08-31T03:54:30;100815.19;;;12.38;100.00
76321;BME280;65132;52.088;5.402;2023-08-31T03:57:10;100822.53;;;12.45;100.00
76321;BME280;65132;52.088;5.402;2023-08-31T03:59:37;100819.81;;;12.45;100.00
76321;BME280;65132;52.088;5.402;2023-08-31T04:02:03;100828.81;;;12.46;100.00
76321;BME280;65132;52.088;5.402;2023-08-31T04:04:31;100828.50;;;12.49;100.00
76321;BME280;65132;52.088;5.402;2023-08-31T04:06:58;100830.06;;;12.51;100.00
76321;BME280;65132;52.088;5.402;2023-08-31T04:09:32;100833.75;;;12.50;100.00
76321;BME280;65132;52.088;5.402;2023-08-31T04:12:01;100840.91;;;12.51;100.00
76321;BME280;65132;52.088;5.402;2023-08-31T04:14:34;100842.63;;;12.52;100.00
76321;BME280;65132;52.088;5.402;2023-08-31T04:17:01;100850.22;;;12.49;100.00
76321;BME280;65132;52.088;5.402;2023-08-31T04:19:27;100859.22;;;12.49;100.00
76321;BME280;65132;52.088;5.402;2023-08-31T04:21:54;100856.81;;;12.46;100.00
76321;BME280;65132;52.088;5.402;2023-08-31T04:24:26;100851.41;;;12.46;100.00
76321;BME280;65132;52.088;5.402;2023-08-31T04:26:54;100849.50;;;12.47;100.00
76321;BME280;65132;52.088;5.402;2023-08-31T04:29:25;100847.50;;;12.49;100.00
76321;BME280;65132;52.088;5.402;2023-08-31T04:31:55;100841.31;;;12.56;100.00
76321;BME280;65132;52.088;5.402;2023-08-31T04:34:30;100857.03;;;12.53;100.00
76321;BME280;65132;52.088;5.402;2023-08-31T04:37:08;100844.31;;;12.53;100.00
76321;BME280;65132;52.088;5.402;2023-08-31T04:39:36;100847.72;;;12.55;100.00
76321;BME280;65132;52.088;5.402;2023-08-31T04:42:08;100855.25;;;12.61;100.00
76321;BME280;65132;52.088;5.402;2023-08-31T04:44:40;100859.66;;;12.62;100.00
76321;BME280;65132;52.088;5.402;2023-08-31T04:47:13;100867.44;;;12.57;100.00
76321;BME280;65132;52.088;5.402;2023-08-31T04:49:54;100867.25;;;12.59;100.00
76321;BME280;65132;52.088;5.402;2023-08-31T04:52:22;100873.00;;;12.56;100.00
76321;BME280;65132;52.088;5.402;2023-08-31T04:54:48;100876.97;;;12.61;100.00
76321;BME280;65132;52.088;5.402;2023-08-31T04:57:16;100882.09;;;12.64;100.00
76321;BME280;65132;52.088;5.402;2023-08-31T04:59:49;100886.81;;;12.62;100.00
76321;BME280;65132;52.088;5.402;2023-08-31T05:02:16;100888.22;;;12.66;100.00
76321;BME280;65132;52.088;5.402;2023-08-31T05:04:42;100892.09;;;12.64;100.00
76321;BME280;65132;52.088;5.402;2023-08-31T05:07:09;100887.69;;;12.63;100.00
76321;BME280;65132;52.088;5.402;2023-08-31T05:09:35;100897.69;;;12.62;100.00
76321;BME280;65132;52.088;5.402;2023-08-31T05:12:05;100894.63;;;12.65;100.00
76321;BME280;65132;52.088;5.402;2023-08-31T05:14:34;100900.06;;;12.65;100.00
76321;BME280;65132;52.088;5.402;2023-08-31T05:17:03;100893.09;;;12.63;100.00
76321;BME280;65132;52.088;5.402;2023-08-31T05:19:31;100897.34;;;12.65;100.00
76321;BME280;65132;52.088;5.402;2023-08-31T05:22:00;100904.34;;;12.68;100.00
76321;BME280;65132;52.088;5.402;2023-08-31T05:24:34;100897.19;;;12.67;100.00
76321;BME280;65132;52.088;5.402;2023-08-31T05:27:05;100901.78;;;12.66;100.00
76321;BME280;65132;52.088;5.402;2023-08-31T05:29:31;100901.47;;;12.69;100.00
76321;BME280;65132;52.088;5.402;2023-08-31T05:32:00;100905.88;;;12.70;100.00
76321;BME280;65132;52.088;5.402;2023-08-31T05:34:27;100909.25;;;12.64;100.00
76321;BME280;65132;52.088;5.402;2023-08-31T05:36:53;100912.81;;;12.65;100.00
76321;BME280;65132;52.088;5.402;2023-08-31T05:39:20;100908.91;;;12.67;100.00
76321;BME280;65132;52.088;5.402;2023-08-31T05:41:49;100916.47;;;12.73;100.00
76321;BME280;65132;52.088;5.402;2023-08-31T05:44:16;100914.72;;;12.72;100.00
76321;BME280;65132;52.088;5.402;2023-08-31T05:46:42;100910.94;;;12.65;100.00
76321;BME280;65132;52.088;5.402;2023-08-31T05:49:09;100913.75;;;12.73;100.00
76321;BME280;65132;52.088;5.402;2023-08-31T05:51:36;100907.50;;;12.81;100.00
76321;BME280;65132;52.088;5.402;2023-08-31T05:54:03;100914.72;;;12.72;100.00
76321;BME280;65132;52.088;5.402;2023-08-31T05:56:31;100920.88;;;12.74;100.00
76321;BME280;65132;52.088;5.402;2023-08-31T05:59:02;100923.81;;;12.81;100.00
76321;BME280;65132;52.088;5.402;2023-08-31T06:01:29;100962.44;;;12.92;100.00
76321;BME280;65132;52.088;5.402;2023-08-31T06:03:55;100948.25;;;12.81;100.00
76321;BME280;65132;52.088;5.402;2023-08-31T06:06:22;100948.72;;;12.76;100.00
76321;BME280;65132;52.088;5.402;2023-08-31T06:08:48;100957.94;;;12.66;100.00
76321;BME280;65132;52.088;5.402;2023-08-31T06:11:19;100947.00;;;12.75;100.00
76321;BME280;65132;52.088;5.402;2023-08-31T06:13:51;100954.47;;;12.73;100.00
76321;BME280;65132;52.088;5.402;2023-08-31T06:16:19;100955.84;;;12.77;100.00
76321;BME280;65132;52.088;5.402;2023-08-31T06:18:47;100962.38;;;12.84;100.00
76321;BME280;65132;52.088;5.402;2023-08-31T06:21:15;100962.06;;;12.87;100.00
76321;BME280;65132;52.088;5.402;2023-08-31T06:23:44;100956.06;;;12.84;100.00
76321;BME280;65132;52.088;5.402;2023-08-31T06:26:11;100951.13;;;12.79;100.00
76321;BME280;65132;52.088;5.402;2023-08-31T06:28:37;100961.50;;;12.84;100.00
76321;BME280;65132;52.088;5.402;2023-08-31T06:31:03;100967.88;;;12.92;100.00
76321;BME280;65132;52.088;5.402;2023-08-31T06:33:31;100976.72;;;12.94;100.00
76321;BME280;65132;52.088;5.402;2023-08-31T06:35:58;100968.25;;;12.97;100.00
76321;BME280;65132;52.088;5.402;2023-08-31T06:38:24;100965.13;;;13.02;100.00
76321;BME280;65132;52.088;5.402;2023-08-31T06:40:51;100958.09;;;12.99;100.00
76321;BME280;65132;52.088;5.402;2023-08-31T06:43:17;100962.25;;;13.03;100.00
76321;BME280;65132;52.088;5.402;2023-08-31T06:45:46;100958.59;;;13.12;100.00
76321;BME280;65132;52.088;5.402;2023-08-31T06:48:17;100972.56;;;13.17;100.00
76321;BME280;65132;52.088;5.402;2023-08-31T06:50:46;100963.91;;;13.22;100.00
76321;BME280;65132;52.088;5.402;2023-08-31T06:53:13;100963.22;;;13.20;100.00
76321;BME280;65132;52.088;5.402;2023-08-31T06:55:41;100971.41;;;13.28;100.00
76321;BME280;65132;52.088;5.402;2023-08-31T06:58:08;100967.66;;;13.21;100.00
76321;BME280;65132;52.088;5.402;2023-08-31T07:00:37;100978.91;;;13.26;100.00
76321;BME280;65132;52.088;5.402;2023-08-31T07:03:13;100974.28;;;13.44;100.00
76321;BME280;65132;52.088;5.402;2023-08-31T07:05:43;100969.16;;;13.67;100.00
76321;BME280;65132;52.088;5.402;2023-08-31T07:08:10;100978.25;;;13.83;100.00
76321;BME280;65132;52.088;5.402;2023-08-31T07:10:36;100981.22;;;13.72;100.00
76321;BME280;65132;52.088;5.402;2023-08-31T07:13:04;100983.16;;;13.80;100.00
76321;BME280;65132;52.088;5.402;2023-08-31T07:15:32;100981.31;;;13.80;100.00
76321;BME280;65132;52.088;5.402;2023-08-31T07:17:59;100980.09;;;13.83;100.00
76321;BME280;65132;52.088;5.402;2023-08-31T07:20:28;100993.84;;;13.73;100.00
76321;BME280;65132;52.088;5.402;2023-08-31T07:22:54;101007.09;;;13.76;100.00
76321;BME280;65132;52.088;5.402;2023-08-31T07:25:23;101010.78;;;13.67;100.00
76321;BME280;65132;52.088;5.402;2023-08-31T07:27:52;101004.81;;;13.64;100.00
76321;BME280;65132;52.088;5.402;2023-08-31T07:30:19;101005.09;;;13.53;100.00
76321;BME280;65132;52.088;5.402;2023-08-31T07:32:45;100998.25;;;13.49;100.00
76321;BME280;65132;52.088;5.402;2023-08-31T07:35:12;101008.34;;;13.56;100.00
76321;BME280;65132;52.088;5.402;2023-08-31T07:37:39;101000.72;;;13.60;100.00
76321;BME280;65132;52.088;5.402;2023-08-31T07:40:09;101007.69;;;13.62;100.00
76321;BME280;65132;52.088;5.402;2023-08-31T07:42:35;101002.72;;;13.83;100.00
76321;BME280;65132;52.088;5.402;2023-08-31T07:45:02;101003.09;;;13.88;100.00
76321;BME280;65132;52.088;5.402;2023-08-31T07:47:35;101000.50;;;14.12;100.00
76321;BME280;65132;52.088;5.402;2023-08-31T07:50:03;101002.78;;;14.75;100.00
76321;BME280;65132;52.088;5.402;2023-08-31T07:52:34;101018.31;;;14.90;100.00
76321;BME280;65132;52.088;5.402;2023-08-31T07:55:07;101022.25;;;15.04;100.00
76321;BME280;65132;52.088;5.402;2023-08-31T07:57:34;101022.75;;;14.99;100.00
76321;BME280;65132;52.088;5.402;2023-08-31T08:00:00;101018.47;;;14.81;100.00
76321;BME280;65132;52.088;5.402;2023-08-31T08:02:30;101023.75;;;14.74;100.00
76321;BME280;65132;52.088;5.402;2023-08-31T08:04:57;101033.41;;;14.61;100.00
76321;BME280;65132;52.088;5.402;2023-08-31T08:07:23;101020.53;;;14.37;100.00
76321;BME280;65132;52.088;5.402;2023-08-31T08:09:50;101018.66;;;14.29;100.00
76321;BME280;65132;52.088;5.402;2023-08-31T08:12:16;101025.31;;;14.35;100.00
76321;BME280;65132;52.088;5.402;2023-08-31T08:14:45;101025.31;;;14.35;100.00
76321;BME280;65132;52.088;5.402;2023-08-31T08:17:16;101020.78;;;14.60;100.00
76321;BME280;65132;52.088;5.402;2023-08-31T08:19:43;101026.31;;;14.92;100.00
76321;BME280;65132;52.088;5.402;2023-08-31T08:22:09;101028.34;;;14.90;100.00
76321;BME280;65132;52.088;5.402;2023-08-31T08:24:39;101027.00;;;14.86;100.00
76321;BME280;65132;52.088;5.402;2023-08-31T08:27:09;101023.22;;;14.79;100.00
76321;BME280;65132;52.088;5.402;2023-08-31T08:29:36;101044.38;;;14.93;100.00
76321;BME280;65132;52.088;5.402;2023-08-31T08:32:03;101030.09;;;15.31;100.00
76321;BME280;65132;52.088;5.402;2023-08-31T08:34:30;101041.50;;;15.91;100.00
76321;BME280;65132;52.088;5.402;2023-08-31T08:36:56;101031.41;;;16.85;100.00
76321;BME280;65132;52.088;5.402;2023-08-31T08:39:31;101038.56;;;16.86;100.00
76321;BME280;65132;52.088;5.402;2023-08-31T08:41:58;101030.78;;;17.05;100.00
76321;BME280;65132;52.088;5.402;2023-08-31T08:44:31;101048.81;;;16.92;100.00
76321;BME280;65132;52.088;5.402;2023-08-31T08:47:02;101046.38;;;16.97;100.00
76321;BME280;65132;52.088;5.402;2023-08-31T08:49:30;101052.97;;;17.55;100.00
76321;BME280;65132;52.088;5.402;2023-08-31T08:51:58;101045.09;;;17.30;100.00
76321;BME280;65132;52.088;5.402;2023-08-31T08:54:33;101052.00;;;17.26;100.00
76321;BME280;65132;52.088;5.402;2023-08-31T08:57:00;101047.03;;;17.29;100.00
76321;BME280;65132;52.088;5.402;2023-08-31T08:59:35;101061.19;;;17.33;100.00
76321;BME280;65132;52.088;5.402;2023-08-31T09:02:04;101056.91;;;17.30;100.00
76321;BME280;65132;52.088;5.402;2023-08-31T09:04:37;101055.81;;;17.17;100.00
76321;BME280;65132;52.088;5.402;2023-08-31T09:07:06;101047.97;;;17.14;100.00
76321;BME280;65132;52.088;5.402;2023-08-31T09:09:48;101045.78;;;17.77;100.00
76321;BME280;65132;52.088;5.402;2023-08-31T09:12:16;101045.91;;;18.13;100.00
76321;BME280;65132;52.088;5.402;2023-08-31T09:14:43;101047.88;;;18.19;100.00
76321;BME280;65132;52.088;5.402;2023-08-31T09:17:12;101040.97;;;18.81;100.00
76321;BME280;65132;52.088;5.402;2023-08-31T09:19:41;101037.69;;;19.28;100.00
76321;BME280;65132;52.088;5.402;2023-08-31T09:22:11;101047.94;;;19.82;100.00
76321;BME280;65132;52.088;5.402;2023-08-31T09:24:41;101047.41;;;19.45;100.00
76321;BME280;65132;52.088;5.402;2023-08-31T09:27:10;101042.19;;;18.93;100.00
76321;BME280;65132;52.088;5.402;2023-08-31T09:29:37;101053.03;;;18.22;100.00
76321;BME280;65132;52.088;5.402;2023-08-31T09:32:06;101057.22;;;17.95;100.00
76321;BME280;65132;52.088;5.402;2023-08-31T09:34:35;101061.13;;;17.63;100.00
76321;BME280;65132;52.088;5.402;2023-08-31T09:37:06;101046.16;;;17.29;100.00
76321;BME280;65132;52.088;5.402;2023-08-31T09:39:39;101058.97;;;17.28;100.00
76321;BME280;65132;52.088;5.402;2023-08-31T09:42:05;101061.72;;;17.06;100.00
76321;BME280;65132;52.088;5.402;2023-08-31T09:44:39;101059.69;;;17.00;100.00
76321;BME280;65132;52.088;5.402;2023-08-31T09:47:07;101058.22;;;16.89;100.00
76321;BME280;65132;52.088;5.402;2023-08-31T09:49:34;101059.38;;;16.64;100.00
76321;BME280;65132;52.088;5.402;2023-08-31T09:52:03;101055.78;;;16.63;100.00
76321;BME280;65132;52.088;5.402;2023-08-31T09:54:30;101054.03;;;17.54;100.00
76321;BME280;65132;52.088;5.402;2023-08-31T09:56:59;101052.22;;;18.71;100.00
76321;BME280;65132;52.088;5.402;2023-08-31T09:59:29;101047.19;;;19.46;100.00
76321;BME280;65132;52.088;5.402;2023-08-31T10:01:56;101050.94;;;20.15;100.00
76321;BME280;65132;52.088;5.402;2023-08-31T10:04:23;101052.06;;;20.55;98.00
76321;BME280;65132;52.088;5.402;2023-08-31T10:06:53;101066.28;;;21.12;95.90
76321;BME280;65132;52.088;5.402;2023-08-31T10:09:19;101061.22;;;21.22;91.01
76321;BME280;65132;52.088;5.402;2023-08-31T10:11:46;101056.34;;;21.17;88.35
76321;BME280;65132;52.088;5.402;2023-08-31T10:14:13;101057.03;;;21.39;85.45
76321;BME280;65132;52.088;5.402;2023-08-31T10:16:44;101057.50;;;21.62;85.15
76321;BME280;65132;52.088;5.402;2023-08-31T10:19:10;101055.41;;;21.90;83.09
76321;BME280;65132;52.088;5.402;2023-08-31T10:21:40;101049.22;;;22.14;78.90
76321;BME280;65132;52.088;5.402;2023-08-31T10:24:10;101050.44;;;22.44;76.66
76321;BME280;65132;52.088;5.402;2023-08-31T10:26:41;101052.50;;;22.69;71.84
76321;BME280;65132;52.088;5.402;2023-08-31T10:29:26;101051.72;;;22.48;68.19
76321;BME280;65132;52.088;5.402;2023-08-31T10:31:53;101056.44;;;22.15;69.79
76321;BME280;65132;52.088;5.402;2023-08-31T10:34:34;101043.47;;;22.22;68.56
76321;BME280;65132;52.088;5.402;2023-08-31T10:37:19;101047.97;;;22.23;67.85
76321;BME280;65132;52.088;5.402;2023-08-31T10:40:06;101054.69;;;22.34;65.47
76321;BME280;65132;52.088;5.402;2023-08-31T10:42:33;101058.97;;;22.30;65.99
76321;BME280;65132;52.088;5.402;2023-08-31T10:45:12;101057.66;;;22.59;62.40
76321;BME280;65132;52.088;5.402;2023-08-31T10:47:48;101053.34;;;23.20;65.19
76321;BME280;65132;52.088;5.402;2023-08-31T10:50:22;101045.63;;;22.91;58.41
76321;BME280;65132;52.088;5.402;2023-08-31T10:52:52;101053.78;;;23.17;60.45
76321;BME280;65132;52.088;5.402;2023-08-31T10:55:21;101051.03;;;23.48;60.26
76321;BME280;65132;52.088;5.402;2023-08-31T10:57:53;101054.09;;;23.40;61.68
76321;BME280;65132;52.088;5.402;2023-08-31T11:00:52;101042.50;;;23.56;62.69
76321;BME280;65132;52.088;5.402;2023-08-31T11:03:19;101047.81;;;23.57;60.40
76321;BME280;65132;52.088;5.402;2023-08-31T11:05:52;101052.38;;;22.31;59.69
76321;BME280;65132;52.088;5.402;2023-08-31T11:08:25;101034.84;;;22.83;55.59
76321;BME280;65132;52.088;5.402;2023-08-31T11:10:54;101046.22;;;22.99;56.20
76321;BME280;65132;52.088;5.402;2023-08-31T11:13:23;101044.00;;;23.14;57.61
76321;BME280;65132;52.088;5.402;2023-08-31T11:15:52;101052.94;;;23.54;56.10
76321;BME280;65132;52.088;5.402;2023-08-31T11:18:20;101050.03;;;23.42;53.86
76321;BME280;65132;52.088;5.402;2023-08-31T11:20:47;101053.22;;;23.39;52.65
76321;BME280;65132;52.088;5.402;2023-08-31T11:23:15;101056.00;;;23.95;53.15
76321;BME280;65132;52.088;5.402;2023-08-31T11:25:42;101058.50;;;24.03;52.94
76321;BME280;65132;52.088;5.402;2023-08-31T11:28:22;101063.41;;;24.01;48.40
76321;BME280;65132;52.088;5.402;2023-08-31T11:30:48;101059.06;;;24.12;48.12
76321;BME280;65132;52.088;5.402;2023-08-31T11:33:17;101059.50;;;23.84;49.66
76321;BME280;65132;52.088;5.402;2023-08-31T11:35:45;101057.69;;;23.96;50.25
76321;BME280;65132;52.088;5.402;2023-08-31T11:38:18;101052.66;;;24.36;50.57
76321;BME280;65132;52.088;5.402;2023-08-31T11:40:56;101053.28;;;24.74;47.13
76321;BME280;65132;52.088;5.402;2023-08-31T11:43:27;101056.31;;;25.20;46.49
76321;BME280;65132;52.088;5.402;2023-08-31T11:45:53;101064.38;;;25.22;46.31
76321;BME280;65132;52.088;5.402;2023-08-31T11:48:25;101057.25;;;25.14;42.50
76321;BME280;65132;52.088;5.402;2023-08-31T11:50:54;101063.78;;;25.38;43.92
76321;BME280;65132;52.088;5.402;2023-08-31T11:53:24;101057.88;;;25.87;46.94
76321;BME280;65132;52.088;5.402;2023-08-31T11:55:53;101062.13;;;25.30;43.62
76321;BME280;65132;52.088;5.402;2023-08-31T11:58:20;101059.31;;;25.37;42.77
76321;BME280;65132;52.088;5.402;2023-08-31T12:00:56;101058.75;;;25.46;44.28
76321;BME280;65132;52.088;5.402;2023-08-31T12:03:22;101060.69;;;25.28;45.05
76321;BME280;65132;52.088;5.402;2023-08-31T12:06:07;101055.34;;;25.15;42.33
76321;BME280;65132;52.088;5.402;2023-08-31T12:08:37;101057.53;;;24.76;43.67
76321;BME280;65132;52.088;5.402;2023-08-31T12:11:06;101051.72;;;25.14;43.53
76321;BME280;65132;52.088;5.402;2023-08-31T12:13:33;101054.44;;;24.66;42.41
76321;BME280;65132;52.088;5.402;2023-08-31T12:16:11;101056.34;;;24.66;45.76
76321;BME280;65132;52.088;5.402;2023-08-31T12:18:40;101060.50;;;24.57;44.27
76321;BME280;65132;52.088;5.402;2023-08-31T12:21:06;101066.66;;;24.59;44.77
76321;BME280;65132;52.088;5.402;2023-08-31T12:23:33;101061.56;;;25.10;44.58
76321;BME280;65132;52.088;5.402;2023-08-31T12:25:59;101060.69;;;25.28;42.65
76321;BME280;65132;52.088;5.402;2023-08-31T12:28:27;101065.72;;;25.49;41.11
76321;BME280;65132;52.088;5.402;2023-08-31T12:30:54;101068.72;;;25.47;41.61
76321;BME280;65132;52.088;5.402;2023-08-31T12:33:22;101067.28;;;25.27;42.59
76321;BME280;65132;52.088;5.402;2023-08-31T12:35:49;101058.97;;;25.97;41.96
76321;BME280;65132;52.088;5.402;2023-08-31T12:38:15;101061.69;;;25.74;43.42
76321;BME280;65132;52.088;5.402;2023-08-31T12:40:42;101066.09;;;26.05;42.89
76321;BME280;65132;52.088;5.402;2023-08-31T12:43:08;101073.75;;;26.21;43.06
76321;BME280;65132;52.088;5.402;2023-08-31T12:45:40;101063.84;;;25.31;42.81
76321;BME280;65132;52.088;5.402;2023-08-31T12:48:12;101085.97;;;25.20;41.93
76321;BME280;65132;52.088;5.402;2023-08-31T12:50:39;101074.25;;;25.77;41.92
76321;BME280;65132;52.088;5.402;2023-08-31T12:53:05;101081.09;;;26.04;42.20
76321;BME280;65132;52.088;5.402;2023-08-31T12:55:35;101075.03;;;25.54;42.34
76321;BME280;65132;52.088;5.402;2023-08-31T12:58:01;101073.22;;;25.48;41.65
76321;BME280;65132;52.088;5.402;2023-08-31T13:00:27;101067.00;;;24.87;42.09
76321;BME280;65132;52.088;5.402;2023-08-31T13:02:54;101070.50;;;25.12;43.96